Time;durP1;ratioP1;P1;durP2;ratioP2;P2;SDS_P1;SDS_P2;PMS_P1;PMS_P2;Temp;Humidity;BMP_temperature;BMP_pressure;BME280_temperature;BME280_humidity;BME280_pressure;Samples;Min_cycle;Max_cycle;Signal;HPM_P1;HPM_P2
2021/03/04 00:02:23;;;;;;;61.90;26.30;;;;;;;0.89;78.64;96701.47;5090129;28;20283;-61
2021/03/04 00:04:50;;;;;;;61.50;26.97;;;;;;;0.63;74.06;96698.00;5089999;28;20232;-62
2021/03/04 00:07:17;;;;;;;51.23;24.40;;;;;;;0.34;74.81;96712.03;5090180;28;20203;-62
2021/03/04 00:09:44;;;;;;;47.33;21.63;;;;;;;0.09;76.96;96702.63;5090423;28;20683;-62
2021/03/04 00:12:11;;;;;;;31.90;14.23;;;;;;;0.09;78.46;96694.94;5089951;28;20235;-63
2021/03/04 00:14:38;;;;;;;21.17;12.40;;;;;;;0.07;79.00;96702.00;5090293;28;20665;-61
2021/03/04 00:17:06;;;;;;;33.10;15.63;;;;;;;0.08;79.32;96694.16;5090112;28;20287;-63
2021/03/04 00:19:33;;;;;;;19.97;10.10;;;;;;;0.02;79.32;96694.94;5090476;28;20643;-62
2021/03/04 00:22:00;;;;;;;17.80;9.70;;;;;;;-0.04;79.74;96698.28;5089804;28;20195;-62
2021/03/04 00:24:26;;;;;;;19.33;9.70;;;;;;;-0.14;80.28;96692.78;5090416;28;20555;-62
2021/03/04 00:26:53;;;;;;;24.00;12.07;;;;;;;-0.25;81.06;96686.47;5089802;28;20282;-62
2021/03/04 00:29:20;;;;;;;27.30;14.13;;;;;;;-0.19;81.31;96690.81;5089895;28;20674;-62
2021/03/04 00:31:47;;;;;;;27.97;13.90;;;;;;;-0.34;82.17;96692.75;5090264;28;20258;-62
2021/03/04 00:34:15;;;;;;;32.13;14.57;;;;;;;-0.34;82.86;96687.66;5093893;28;20694;-63
2021/03/04 00:36:42;;;;;;;31.17;15.27;;;;;;;-0.37;82.88;96682.16;5093970;28;20743;-62
2021/03/04 00:39:10;;;;;;;36.67;17.10;;;;;;;-0.31;83.01;96674.50;5093722;28;20195;-62
2021/03/04 00:41:37;;;;;;;35.73;18.37;;;;;;;-0.25;83.90;96666.03;5093894;28;20218;-62
2021/03/04 00:44:05;;;;;;;35.57;18.00;;;;;;;-0.17;83.48;96665.06;5094011;28;20192;-62
2021/03/04 00:46:32;;;;;;;39.83;19.57;;;;;;;-0.13;84.38;96666.25;5093709;28;20275;-62
2021/03/04 00:48:59;;;;;;;44.83;22.23;;;;;;;0.13;84.38;96657.78;5093474;28;20315;-62
2021/03/04 00:51:28;;;;;;;55.23;25.43;;;;;;;0.02;84.67;96654.06;5093543;28;20795;-62
2021/03/04 00:53:55;;;;;;;46.27;21.77;;;;;;;0.00;84.99;96661.16;5093732;28;20197;-62
2021/03/04 00:56:22;;;;;;;36.57;19.80;;;;;;;-0.06;84.50;96664.50;5093350;28;20200;-61
2021/03/04 00:58:49;;;;;;;41.67;19.67;;;;;;;-0.18;83.47;96664.28;5093335;28;20227;-62
2021/03/04 01:01:17;;;;;;;40.60;20.07;;;;;;;-0.60;82.46;96654.44;5093580;28;20199;-62
2021/03/04 01:03:44;;;;;;;48.40;22.77;;;;;;;-0.61;84.19;96646.00;5093228;28;20286;-62
2021/03/04 01:06:12;;;;;;;48.83;24.83;;;;;;;-0.50;85.87;96647.19;5093507;28;20211;-62
2021/03/04 01:08:39;;;;;;;51.30;26.33;;;;;;;-0.53;86.30;96637.34;5093166;28;20187;-63
2021/03/04 01:11:07;;;;;;;50.50;24.47;;;;;;;-0.55;86.75;96639.34;5093205;28;20227;-63
2021/03/04 01:13:34;;;;;;;47.37;23.93;;;;;;;-0.60;87.39;96629.69;5093265;28;20640;-62
2021/03/04 01:16:01;;;;;;;41.30;23.27;;;;;;;-0.58;87.72;96632.06;5093000;28;20645;-62
2021/03/04 01:18:28;;;;;;;47.80;23.50;;;;;;;-0.58;87.94;96629.50;5093055;28;20682;-63
2021/03/04 01:20:55;;;;;;;52.80;25.27;;;;;;;-0.63;87.95;96624.19;5093301;28;20199;-61
2021/03/04 01:23:22;;;;;;;47.53;22.80;;;;;;;-0.62;87.79;96625.78;5093170;28;20228;-61
2021/03/04 01:25:50;;;;;;;46.57;21.70;;;;;;;-0.57;87.86;96621.66;5092961;28;20192;-62
2021/03/04 01:28:17;;;;;;;56.33;25.77;;;;;;;-0.61;88.07;96615.38;5092855;28;20219;-62
2021/03/04 01:30:44;;;;;;;51.23;22.63;;;;;;;-0.62;88.37;96616.34;5092649;28;20568;-62
2021/03/04 01:33:11;;;;;;;55.30;23.43;;;;;;;-0.69;86.36;96609.66;5092743;28;20200;-62
2021/03/04 01:35:38;;;;;;;32.23;16.77;;;;;;;-1.04;83.78;96614.91;5092815;28;20230;-62
2021/03/04 01:38:05;;;;;;;33.17;16.23;;;;;;;-1.46;83.01;96604.97;5092502;28;20193;-61
2021/03/04 01:40:32;;;;;;;31.07;14.93;;;;;;;-1.40;83.51;96601.66;5092671;28;20681;-62
2021/03/04 01:43:00;;;;;;;27.20;14.17;;;;;;;-1.34;82.83;96600.88;5092561;28;20684;-61
2021/03/04 01:45:27;;;;;;;25.97;12.30;;;;;;;-1.45;82.95;96596.34;5091810;28;20196;-61
2021/03/04 01:47:55;;;;;;;24.03;12.77;;;;;;;-1.63;82.25;96601.16;5092779;28;20218;-63
2021/03/04 01:50:23;;;;;;;21.33;12.40;;;;;;;-1.71;81.78;96591.13;5092388;28;20231;-62
2021/03/04 01:52:50;;;;;;;22.27;11.07;;;;;;;-1.70;81.77;96590.94;5092501;28;20223;-65
2021/03/04 01:55:18;;;;;;;26.07;12.40;;;;;;;-1.89;82.38;96589.84;5092331;28;20729;-62
2021/03/04 01:57:47;;;;;;;19.17;9.97;;;;;;;-1.87;83.66;96579.50;5092250;28;20204;-62
2021/03/04 02:00:17;;;;;;;15.23;8.27;;;;;;;-1.83;83.40;96578.91;5091945;28;20231;-61
2021/03/04 02:02:44;;;;;;;12.70;7.93;;;;;;;-1.74;83.45;96575.25;5092293;28;20206;-62
2021/03/04 02:05:12;;;;;;;18.17;7.47;;;;;;;-1.86;85.29;96574.22;5092065;28;20198;-63
2021/03/04 02:07:45;;;;;;;13.00;7.03;;;;;;;-1.91;86.06;96579.09;5092217;28;20219;-63
2021/03/04 02:10:18;;;;;;;14.87;7.13;;;;;;;-1.85;85.28;96577.56;5092023;28;20196;-61
2021/03/04 02:12:55;;;;;;;13.67;7.10;;;;;;;-1.96;86.43;96580.63;5092014;28;20792;-63
2021/03/04 02:15:28;;;;;;;17.23;7.70;;;;;;;-2.05;87.83;96584.28;5091888;28;20238;-63
2021/03/04 02:17:58;;;;;;;17.13;7.20;;;;;;;-1.95;87.62;96585.53;5091805;28;20642;-63
2021/03/04 02:20:32;;;;;;;15.70;8.50;;;;;;;-1.88;86.67;96573.59;5091790;28;20227;-62
2021/03/04 02:23:11;;;;;;;16.53;8.70;;;;;;;-1.91;85.60;96576.53;5091989;28;20249;-63
2021/03/04 02:25:52;;;;;;;19.63;9.87;;;;;;;-2.00;85.80;96571.78;5091889;28;20574;-62
2021/03/04 02:28:21;;;;;;;29.27;11.87;;;;;;;-2.05;85.82;96574.91;5091792;28;20248;-62
2021/03/04 02:30:50;;;;;;;31.27;16.17;;;;;;;-2.17;85.17;96574.63;5091579;28;20190;-62
2021/03/04 02:33:21;;;;;;;32.33;14.93;;;;;;;-2.10;85.82;96568.78;5091648;28;20663;-62
2021/03/04 02:35:49;;;;;;;36.00;17.83;;;;;;;-2.07;86.22;96574.28;5091983;28;20283;-63
2021/03/04 02:38:21;;;;;;;35.80;17.17;;;;;;;-2.18;85.58;96570.50;5091576;28;20297;-61
2021/03/04 02:40:52;;;;;;;34.83;17.50;;;;;;;-2.14;85.66;96568.34;5091340;28;20283;-62
2021/03/04 02:43:22;;;;;;;28.27;13.63;;;;;;;-2.20;85.54;96575.00;5091749;28;20213;-62
2021/03/04 02:45:51;;;;;;;25.73;13.13;;;;;;;-2.43;85.79;96568.56;5091321;28;20200;-62
2021/03/04 02:48:20;;;;;;;25.93;12.83;;;;;;;-2.50;86.76;96567.75;5091649;28;20202;-63
2021/03/04 02:50:49;;;;;;;26.43;13.80;;;;;;;-2.46;86.84;96574.03;5091192;28;20233;-62
2021/03/04 02:53:18;;;;;;;34.37;16.20;;;;;;;-2.47;87.59;96567.38;5091134;28;20191;-63
2021/03/04 02:55:45;;;;;;;37.53;17.37;;;;;;;-2.49;87.03;96571.88;5090356;28;20280;-62
2021/03/04 02:58:14;;;;;;;32.90;16.00;;;;;;;-2.45;87.60;96573.06;5090884;28;20222;-62
2021/03/04 03:00:43;;;;;;;34.53;15.37;;;;;;;-2.43;87.83;96560.94;5090977;28;20205;-62
2021/03/04 03:03:14;;;;;;;33.23;15.80;;;;;;;-2.79;89.34;96566.91;5091157;28;20279;-62
2021/03/04 03:05:44;;;;;;;24.93;14.43;;;;;;;-2.68;90.70;96570.72;5090914;28;20190;-62
2021/03/04 03:08:15;;;;;;;25.40;14.10;;;;;;;-2.77;91.83;96574.38;5090942;28;20198;-63
2021/03/04 03:10:43;;;;;;;27.77;13.93;;;;;;;-2.73;91.69;96570.50;5090849;28;20673;-63
2021/03/04 03:13:10;;;;;;;30.00;14.90;;;;;;;-2.67;91.95;96559.59;5090797;28;20233;-62
2021/03/04 03:15:37;;;;;;;28.63;14.77;;;;;;;-2.68;90.71;96568.97;5090727;28;20305;-62
2021/03/04 03:18:06;;;;;;;28.83;14.67;;;;;;;-2.65;91.37;96563.53;5090804;28;20194;-63
2021/03/04 03:20:33;;;;;;;29.00;13.67;;;;;;;-2.67;90.90;96570.56;5090784;28;20282;-63
2021/03/04 03:23:02;;;;;;;26.30;14.23;;;;;;;-2.72;90.58;96570.31;5090749;28;20202;-62
2021/03/04 03:25:28;;;;;;;30.90;14.73;;;;;;;-2.65;90.37;96555.91;5090876;28;20194;-62
2021/03/04 03:27:56;;;;;;;33.13;15.73;;;;;;;-2.59;90.68;96558.69;5090614;28;20237;-62
2021/03/04 03:30:26;;;;;;;31.23;16.17;;;;;;;-2.54;90.44;96562.22;5090492;28;20234;-62
2021/03/04 03:32:57;;;;;;;50.33;23.30;;;;;;;-2.49;90.03;96554.06;5090369;28;20259;-63
2021/03/04 03:35:26;;;;;;;34.03;16.60;;;;;;;-2.47;90.18;96552.09;5090540;28;20195;-63
2021/03/04 03:37:55;;;;;;;34.53;16.30;;;;;;;-2.51;89.35;96554.25;5090431;28;20194;-62
2021/03/04 03:40:26;;;;;;;65.83;24.63;;;;;;;-2.55;88.63;96555.59;5090729;28;20214;-62
2021/03/04 03:42:55;;;;;;;49.43;21.60;;;;;;;-2.55;89.16;96552.25;5090303;28;20864;-62
2021/03/04 03:45:26;;;;;;;39.50;18.43;;;;;;;-2.68;89.51;96553.72;5090191;28;20557;-62
2021/03/04 03:47:55;;;;;;;33.53;16.30;;;;;;;-2.59;89.00;96553.59;5090471;28;20563;-63
2021/03/04 03:50:23;;;;;;;41.17;17.43;;;;;;;-2.60;88.25;96557.91;5090416;28;20226;-63
2021/03/04 03:52:53;;;;;;;33.03;16.57;;;;;;;-2.67;88.17;96549.41;5090350;28;20299;-62
2021/03/04 03:55:21;;;;;;;32.57;17.10;;;;;;;-2.62;88.89;96550.44;5090722;28;20196;-62
2021/03/04 03:57:51;;;;;;;31.80;16.90;;;;;;;-2.58;89.26;96542.44;5090020;28;20284;-62
2021/03/04 04:00:24;;;;;;;30.20;16.17;;;;;;;-2.63;89.14;96545.53;5090285;28;20193;-62
2021/03/04 04:02:55;;;;;;;33.10;16.50;;;;;;;-2.67;89.99;96547.66;5090052;28;20245;-62
2021/03/04 04:05:22;;;;;;;30.43;16.10;;;;;;;-2.61;90.58;96549.47;5090228;28;20225;-63
2021/03/04 04:07:50;;;;;;;35.10;16.90;;;;;;;-2.45;89.95;96547.63;5093941;28;20280;-63
2021/03/04 04:10:18;;;;;;;33.47;17.37;;;;;;;-2.46;90.19;96551.13;5096995;28;20352;-62
2021/03/04 04:12:45;;;;;;;34.33;18.20;;;;;;;-2.44;90.98;96546.66;5096999;28;20233;-63
2021/03/04 04:15:13;;;;;;;43.93;21.30;;;;;;;-2.50;90.54;96548.19;5097111;28;20214;-62
2021/03/04 04:17:40;;;;;;;40.83;19.70;;;;;;;-2.36;90.59;96551.59;5097048;28;20198;-61
2021/03/04 04:20:09;;;;;;;39.47;19.87;;;;;;;-2.48;89.87;96546.22;5096971;28;20599;-62
2021/03/04 04:22:36;;;;;;;41.23;19.03;;;;;;;-2.45;90.27;96540.00;5097219;28;20198;-61
2021/03/04 04:25:04;;;;;;;33.23;17.33;;;;;;;-2.50;91.67;96539.75;5096685;28;20197;-62
2021/03/04 04:27:31;;;;;;;38.30;16.63;;;;;;;-2.40;92.00;96535.91;5096540;28;20207;-63
2021/03/04 04:29:59;;;;;;;31.70;14.70;;;;;;;-2.49;91.60;96531.16;5096721;28;20199;-61
2021/03/04 04:32:26;;;;;;;38.53;16.57;;;;;;;-2.71;92.67;96531.19;5096769;28;20743;-62
2021/03/04 04:34:52;;;;;;;31.63;16.77;;;;;;;-2.85;93.51;96531.28;5096753;28;20202;-63
2021/03/04 04:37:19;;;;;;;32.47;16.83;;;;;;;-2.67;94.26;96536.69;5096589;28;20294;-62
2021/03/04 04:39:47;;;;;;;32.90;16.00;;;;;;;-2.59;93.30;96520.53;5096546;28;20306;-62
2021/03/04 04:42:15;;;;;;;29.43;15.70;;;;;;;-2.58;93.59;96520.31;5096455;28;20214;-63
2021/03/04 04:44:42;;;;;;;31.87;16.37;;;;;;;-2.54;93.59;96520.75;5096417;28;20688;-62
2021/03/04 04:47:09;;;;;;;46.33;20.77;;;;;;;-2.49;94.31;96515.91;5096593;28;20282;-62
2021/03/04 04:49:36;;;;;;;50.10;25.43;;;;;;;-2.47;93.96;96517.25;5096555;28;20282;-62
2021/03/04 04:52:03;;;;;;;56.07;26.77;;;;;;;-2.40;93.85;96517.31;5096285;28;20325;-62
2021/03/04 04:54:30;;;;;;;50.57;24.80;;;;;;;-2.33;93.26;96510.50;5096436;28;20223;-62
2021/03/04 04:56:57;;;;;;;63.43;28.67;;;;;;;-2.29;92.36;96511.72;5096294;28;20240;-63
2021/03/04 04:59:25;;;;;;;53.53;26.13;;;;;;;-2.22;92.07;96507.44;5096061;28;20706;-62
2021/03/04 05:01:52;;;;;;;56.90;25.47;;;;;;;-2.13;92.89;96505.50;5096468;28;20205;-62
2021/03/04 05:04:19;;;;;;;57.10;27.23;;;;;;;-2.11;93.43;96504.34;5096109;28;20282;-63
2021/03/04 05:06:47;;;;;;;52.57;25.40;;;;;;;-1.95;92.32;96505.81;5096453;28;20223;-62
2021/03/04 05:09:13;;;;;;;56.60;28.70;;;;;;;-1.90;92.69;96499.16;5096479;28;20681;-63
2021/03/04 05:11:40;;;;;;;49.63;26.37;;;;;;;-1.88;92.05;96499.75;5096157;28;20637;-61
2021/03/04 05:14:07;;;;;;;59.10;26.40;;;;;;;-1.92;92.17;96502.88;5095696;28;20282;-61
2021/03/04 05:16:35;;;;;;;63.50;27.77;;;;;;;-1.93;92.30;96491.88;5095809;28;20566;-62
2021/03/04 05:19:02;;;;;;;59.43;27.67;;;;;;;-1.97;91.00;96495.78;5093267;28;20235;-62
2021/03/04 05:21:29;;;;;;;68.73;27.50;;;;;;;-1.95;90.56;96501.50;5092886;28;20196;-62
2021/03/04 05:23:56;;;;;;;56.53;26.00;;;;;;;-1.91;90.07;96499.34;5092491;28;20315;-62
2021/03/04 05:26:23;;;;;;;58.20;25.97;;;;;;;-1.84;89.59;96495.84;5092463;28;20188;-62
2021/03/04 05:28:50;;;;;;;51.33;23.23;;;;;;;-2.02;88.10;96502.44;5092818;28;20207;-62
2021/03/04 05:31:17;;;;;;;50.33;22.97;;;;;;;-2.04;87.99;96494.22;5092421;28;20312;-62
2021/03/04 05:33:44;;;;;;;45.37;21.70;;;;;;;-1.99;87.67;96490.09;5092267;28;20279;-63
2021/03/04 05:36:12;;;;;;;42.63;20.93;;;;;;;-1.96;87.32;96494.81;5092269;28;20365;-63
2021/03/04 05:38:42;;;;;;;46.60;22.30;;;;;;;-1.97;87.63;96495.00;5092100;28;20415;-62
2021/03/04 05:41:10;;;;;;;42.30;20.60;;;;;;;-1.92;87.35;96497.78;5092199;28;20198;-62
2021/03/04 05:43:38;;;;;;;44.90;22.63;;;;;;;-1.86;87.24;96494.47;5092309;28;20223;-63
2021/03/04 05:46:06;;;;;;;42.83;20.60;;;;;;;-1.74;87.62;96495.47;5092125;28;20283;-60
2021/03/04 05:48:34;;;;;;;47.13;21.20;;;;;;;-1.70;87.81;96493.34;5092124;28;20200;-62
2021/03/04 05:51:05;;;;;;;39.93;21.00;;;;;;;-1.55;87.70;96488.88;5091909;28;20282;-62
2021/03/04 05:53:34;;;;;;;49.63;22.30;;;;;;;-1.51;88.85;96484.97;5092129;28;20286;-62
2021/03/04 05:56:01;;;;;;;57.50;23.83;;;;;;;-1.40;89.56;96486.97;5091845;28;20278;-62
2021/03/04 05:58:29;;;;;;;44.53;22.03;;;;;;;-1.27;90.08;96491.28;5091552;28;20303;-62
2021/03/04 06:00:58;;;;;;;51.00;22.77;;;;;;;-1.10;90.71;96487.38;5091783;28;20278;-61
2021/03/04 06:03:25;;;;;;;47.57;22.67;;;;;;;-0.99;91.30;96482.47;5091636;28;20667;-63
2021/03/04 06:05:52;;;;;;;40.77;22.10;;;;;;;-0.80;91.40;96485.22;5091694;28;20201;-62
2021/03/04 06:08:21;;;;;;;44.47;21.33;;;;;;;-0.56;91.30;96479.50;5091770;28;20275;-62
2021/03/04 06:10:50;;;;;;;49.77;22.47;;;;;;;0.31;90.81;96481.56;5091676;28;20196;-61
2021/03/04 06:13:17;;;;;;;38.73;19.20;;;;;;;1.74;88.38;96473.03;5091406;28;20234;-63
2021/03/04 06:15:45;;;;;;;48.27;21.77;;;;;;;3.45;81.90;96474.00;5091445;28;20624;-64
2021/03/04 06:18:15;;;;;;;37.40;19.73;;;;;;;5.01;72.82;96480.56;5091369;28;20330;-64
2021/03/04 06:20:43;;;;;;;41.97;19.57;;;;;;;5.93;67.47;96480.88;5091834;28;20199;-63
2021/03/04 06:23:10;;;;;;;38.83;20.67;;;;;;;6.76;63.94;96492.66;5091463;28;20273;-63
2021/03/04 06:25:39;;;;;;;42.80;24.03;;;;;;;6.60;61.58;96485.78;5091151;28;20679;-64
2021/03/04 06:28:07;;;;;;;52.17;24.37;;;;;;;6.03;63.67;96481.00;5091304;28;20282;-63
2021/03/04 06:30:36;;;;;;;52.00;25.00;;;;;;;5.58;64.65;96485.53;5090976;28;20231;-63
2021/03/04 06:33:04;;;;;;;64.07;30.33;;;;;;;4.93;66.28;96483.50;5090993;28;20748;-63
2021/03/04 06:35:33;;;;;;;54.17;28.47;;;;;;;4.54;67.67;96482.59;5091280;28;20281;-63
2021/03/04 06:38:00;;;;;;;62.63;32.87;;;;;;;3.89;70.61;96479.53;5091092;28;20207;-64
2021/03/04 06:40:31;;;;;;;57.50;31.10;;;;;;;3.93;70.58;96483.22;5090976;28;20290;-62
2021/03/04 06:43:00;;;;;;;55.87;29.87;;;;;;;3.67;72.52;96479.34;5090875;28;20771;-62
2021/03/04 06:45:29;;;;;;;55.10;24.87;;;;;;;3.45;74.67;96476.56;5090851;28;20195;-61
2021/03/04 06:48:07;;;;;;;39.93;20.27;;;;;;;3.41;76.71;96470.31;5091212;28;20296;-61
2021/03/04 06:50:35;;;;;;;34.27;19.57;;;;;;;3.46;75.30;96475.56;5090986;28;20199;-62
2021/03/04 06:53:12;;;;;;;36.83;20.13;;;;;;;3.40;76.60;96466.16;5090669;28;20224;-61
2021/03/04 06:55:48;;;;;;;42.93;20.37;;;;;;;3.45;77.22;96466.28;5090829;28;20227;-62
2021/03/04 06:58:30;;;;;;;35.67;19.23;;;;;;;3.39;76.67;96464.59;5091046;28;20269;-61
2021/03/04 07:01:05;;;;;;;41.93;19.53;;;;;;;3.53;76.70;96461.81;5090880;28;20231;-62
2021/03/04 07:03:43;;;;;;;37.17;20.43;;;;;;;3.59;76.49;96461.69;5090769;28;20199;-62
2021/03/04 07:06:11;;;;;;;41.10;21.17;;;;;;;3.92;74.86;96460.31;5090847;28;20238;-62
2021/03/04 07:08:40;;;;;;;37.57;20.60;;;;;;;4.05;73.60;96460.06;5090836;28;20199;-62
2021/03/04 07:11:08;;;;;;;37.40;19.60;;;;;;;4.16;74.44;96456.66;5090614;28;20776;-64
2021/03/04 07:13:37;;;;;;;32.77;18.17;;;;;;;4.34;73.79;96461.63;5090784;28;20192;-63
2021/03/04 07:16:06;;;;;;;38.90;18.90;;;;;;;4.43;73.53;96456.91;5090580;28;20282;-62
2021/03/04 07:18:39;;;;;;;36.17;17.13;;;;;;;4.69;73.69;96457.13;5090739;28;20589;-62
2021/03/04 07:21:09;;;;;;;29.27;16.27;;;;;;;5.00;71.16;96458.41;5091013;28;20206;-63
2021/03/04 07:23:38;;;;;;;31.73;16.57;;;;;;;5.07;70.25;96448.72;5091120;28;20204;-62
2021/03/04 07:26:06;;;;;;;35.27;18.37;;;;;;;5.23;71.37;96444.56;5090452;28;20225;-64
2021/03/04 07:28:33;;;;;;;28.80;17.47;;;;;;;5.37;69.36;96437.31;5090577;28;20192;-62
2021/03/04 07:31:02;;;;;;;32.97;18.13;;;;;;;5.33;69.73;96438.81;5090440;28;20207;-63
2021/03/04 07:33:31;;;;;;;34.03;18.53;;;;;;;5.17;69.56;96428.28;5090457;28;20199;-64
2021/03/04 07:36:01;;;;;;;38.07;20.50;;;;;;;5.30;69.42;96431.53;5090331;28;20257;-63
2021/03/04 07:38:32;;;;;;;36.57;17.87;;;;;;;5.68;70.37;96426.38;5090645;28;20674;-63
2021/03/04 07:41:07;;;;;;;38.83;19.17;;;;;;;6.00;69.30;96424.72;5090269;28;20206;-63
2021/03/04 07:43:47;;;;;;;40.50;20.33;;;;;;;6.30;68.71;96421.69;5089923;28;20198;-62
2021/03/04 07:46:28;;;;;;;36.03;18.27;;;;;;;6.52;66.77;96418.31;5090634;28;20256;-64
2021/03/04 07:48:55;;;;;;;42.30;21.60;;;;;;;6.23;65.57;96415.16;5090500;28;20309;-63
2021/03/04 07:51:22;;;;;;;37.23;20.37;;;;;;;6.42;66.52;96413.81;5090123;28;20291;-63
2021/03/04 07:53:49;;;;;;;32.63;18.80;;;;;;;6.70;67.40;96407.59;5090059;28;20282;-62
2021/03/04 07:56:24;;;;;;;37.97;18.57;;;;;;;6.97;64.87;96399.81;5090051;28;20245;-64
2021/03/04 07:58:51;;;;;;;33.73;19.03;;;;;;;7.09;63.71;96397.81;5089636;28;20286;-63
2021/03/04 08:01:18;;;;;;;33.67;19.57;;;;;;;6.91;63.88;96396.41;5090040;28;20196;-62
2021/03/04 08:03:48;;;;;;;34.87;20.27;;;;;;;7.16;64.53;96395.81;5089999;28;20265;-63
2021/03/04 08:06:16;;;;;;;33.23;20.63;;;;;;;7.46;64.08;96392.63;5089969;28;20199;-63
2021/03/04 08:08:46;;;;;;;35.97;19.40;;;;;;;7.68;61.51;96381.09;5089973;28;20199;-63
2021/03/04 08:11:25;;;;;;;34.40;18.67;;;;;;;7.49;61.59;96385.13;5090494;28;20219;-62
2021/03/04 08:13:52;;;;;;;42.43;20.90;;;;;;;7.64;63.97;96374.09;5089946;28;20191;-63
2021/03/04 08:16:19;;;;;;;72.07;21.50;;;;;;;7.85;62.63;96375.72;5090099;28;20232;-63
2021/03/04 08:18:55;;;;;;;33.97;20.00;;;;;;;7.86;61.02;96371.34;5089834;28;20286;-63
2021/03/04 08:21:22;;;;;;;43.50;21.57;;;;;;;7.88;60.78;96371.84;5089929;28;20238;-64
2021/03/04 08:23:49;;;;;;;116.17;27.43;;;;;;;8.14;61.52;96370.88;5090206;28;20253;-63
2021/03/04 08:26:24;;;;;;;40.07;19.37;;;;;;;8.17;60.52;96365.19;5089793;28;20680;-63
2021/03/04 08:29:04;;;;;;;31.73;19.87;;;;;;;8.50;61.75;96356.22;5089963;28;20274;-63
2021/03/04 08:31:32;;;;;;;33.20;18.40;;;;;;;8.74;61.53;96353.88;5089737;28;20230;-63
2021/03/04 08:34:01;;;;;;;37.33;20.20;;;;;;;8.72;57.37;96348.94;5089748;28;20195;-63
2021/03/04 08:36:40;;;;;;;30.83;18.93;;;;;;;8.83;56.47;96347.13;5089767;28;20200;-63
2021/03/04 08:39:08;;;;;;;35.53;19.40;;;;;;;8.84;56.22;96336.50;5089657;28;20654;-63
2021/03/04 08:41:36;;;;;;;42.17;20.87;;;;;;;8.98;56.32;96344.53;5089279;28;20360;-63
2021/03/04 08:44:11;;;;;;;90.77;25.77;;;;;;;9.35;57.20;96328.63;5089580;28;20192;-63
2021/03/04 08:46:40;;;;;;;32.17;18.13;;;;;;;9.41;56.87;96330.19;5089665;28;20191;-63
2021/03/04 08:49:08;;;;;;;30.10;17.63;;;;;;;9.13;56.37;96331.53;5089852;28;20649;-63
2021/03/04 08:51:43;;;;;;;33.13;18.03;;;;;;;9.51;56.91;96330.16;5089505;28;20228;-62
2021/03/04 08:54:23;;;;;;;29.53;17.53;;;;;;;9.69;53.70;96326.16;5090512;28;20195;-63
2021/03/04 08:56:57;;;;;;;30.07;18.33;;;;;;;9.86;56.58;96316.22;5093818;28;20203;-63
2021/03/04 08:59:25;;;;;;;53.07;20.40;;;;;;;10.11;55.05;96317.91;5093454;28;20231;-62
2021/03/04 09:01:57;;;;;;;33.30;17.13;;;;;;;10.43;54.47;96309.66;5093383;28;20286;-63
2021/03/04 09:04:27;;;;;;;28.40;15.93;;;;;;;10.55;53.66;96307.47;5093422;28;20688;-63
2021/03/04 09:06:54;;;;;;;27.03;15.47;;;;;;;10.66;52.24;96307.09;5093075;28;20575;-63
2021/03/04 09:09:27;;;;;;;24.67;16.00;;;;;;;10.75;51.30;96296.91;5093296;28;20208;-64
2021/03/04 09:11:56;;;;;;;26.53;15.63;;;;;;;10.61;50.16;96286.34;5093518;28;20227;-64
2021/03/04 09:14:28;;;;;;;35.43;16.37;;;;;;;10.57;51.21;96287.19;5093465;28;20257;-64
2021/03/04 09:16:56;;;;;;;24.77;14.33;;;;;;;10.88;50.83;96279.88;5093407;28;20192;-64
2021/03/04 09:19:28;;;;;;;28.60;15.37;;;;;;;10.94;49.28;96278.78;5093669;28;20200;-63
2021/03/04 09:21:57;;;;;;;31.37;15.50;;;;;;;11.05;51.21;96265.41;5092884;28;20684;-64
2021/03/04 09:24:25;;;;;;;24.60;13.90;;;;;;;11.15;51.46;96265.31;5093138;28;20245;-62
2021/03/04 09:26:53;;;;;;;22.20;13.77;;;;;;;11.18;50.17;96256.16;5092768;28;20198;-63
2021/03/04 09:29:20;;;;;;;24.57;13.93;;;;;;;11.34;49.34;96256.75;5092697;28;20199;-63
2021/03/04 09:31:55;;;;;;;19.83;13.53;;;;;;;11.28;48.69;96245.63;5092641;28;20702;-63
2021/03/04 09:34:32;;;;;;;21.23;13.10;;;;;;;11.37;48.96;96240.56;5092970;28;20608;-63
2021/03/04 09:37:07;;;;;;;23.47;13.83;;;;;;;11.65;49.67;96237.88;5092955;28;20203;-63
2021/03/04 09:39:45;;;;;;;23.10;13.13;;;;;;;11.87;49.64;96239.16;5092867;28;20207;-63
2021/03/04 09:42:14;;;;;;;18.83;11.40;;;;;;;11.82;47.79;96229.59;5092334;28;20219;-63
2021/03/04 09:44:51;;;;;;;19.37;11.97;;;;;;;11.94;48.05;96229.94;5092436;28;20576;-64
2021/03/04 09:47:20;;;;;;;23.97;12.37;;;;;;;12.19;49.10;96220.97;5092452;28;20192;-63
2021/03/04 09:49:49;;;;;;;23.13;11.63;;;;;;;12.31;46.91;96210.84;5092424;28;20284;-63
2021/03/04 09:52:20;;;;;;;36.57;12.23;;;;;;;12.72;50.47;96205.72;5092149;28;20223;-64
2021/03/04 09:54:47;;;;;;;31.97;16.80;;;;;;;13.06;45.72;96201.94;5092288;28;20192;-63
2021/03/04 09:57:19;;;;;;;14.80;10.40;;;;;;;13.08;44.17;96197.22;5092239;28;20249;-64
2021/03/04 09:59:51;;;;;;;30.80;12.33;;;;;;;13.13;47.54;96197.13;5092060;28;20251;-63
2021/03/04 10:02:20;;;;;;;25.67;11.00;;;;;;;13.11;46.27;96188.78;5092369;28;20196;-65
2021/03/04 10:05:00;;;;;;;22.27;11.03;;;;;;;13.34;45.83;96182.63;5091710;28;20234;-63
2021/03/04 10:07:31;;;;;;;19.40;10.60;;;;;;;13.22;45.17;96174.50;5092085;28;20203;-64
2021/03/04 10:09:59;;;;;;;17.73;10.70;;;;;;;13.30;45.32;96166.75;5092215;28;20203;-64
2021/03/04 10:12:26;;;;;;;18.27;10.40;;;;;;;13.43;43.08;96173.03;5091905;28;20231;-62
2021/03/04 10:14:55;;;;;;;17.83;10.60;;;;;;;13.54;44.70;96160.53;5091969;28;20252;-64
2021/03/04 10:17:23;;;;;;;17.00;10.67;;;;;;;13.75;44.41;96151.91;5091809;28;20198;-63
2021/03/04 10:19:51;;;;;;;20.97;11.77;;;;;;;14.01;43.68;96153.94;5092323;28;20200;-64
2021/03/04 10:22:19;;;;;;;18.07;10.93;;;;;;;14.12;43.20;96144.78;5092263;28;20272;-63
2021/03/04 10:24:46;;;;;;;24.30;10.50;;;;;;;14.19;42.45;96139.91;5091929;28;20218;-65
2021/03/04 10:27:13;;;;;;;25.63;10.60;;;;;;;14.32;41.69;96131.19;5091891;28;20283;-64
2021/03/04 10:29:40;;;;;;;16.67;9.83;;;;;;;14.34;40.89;96118.59;5091992;28;20257;-63
2021/03/04 10:32:08;;;;;;;14.93;9.30;;;;;;;14.21;41.00;96117.59;5091502;28;20695;-64
2021/03/04 10:34:35;;;;;;;14.17;9.90;;;;;;;14.48;42.46;96108.84;5091499;28;20188;-64
2021/03/04 10:37:02;;;;;;;16.90;10.70;;;;;;;14.54;42.11;96102.41;5091446;28;20196;-64
2021/03/04 10:39:30;;;;;;;14.97;10.07;;;;;;;14.76;41.64;96091.06;5091804;28;20200;-63
2021/03/04 10:41:57;;;;;;;15.60;9.70;;;;;;;14.85;40.39;96093.69;5091390;28;20219;-63
2021/03/04 10:44:24;;;;;;;14.20;9.03;;;;;;;14.96;39.59;96081.84;5091657;28;20239;-64
2021/03/04 10:46:51;;;;;;;17.43;9.93;;;;;;;15.16;40.22;96078.66;5091728;28;20195;-64
2021/03/04 10:49:28;;;;;;;17.90;9.70;;;;;;;15.18;38.93;96076.50;5092124;28;20188;-65
2021/03/04 10:51:55;;;;;;;16.17;9.80;;;;;;;15.33;39.06;96064.78;5091534;28;20223;-64
2021/03/04 10:54:23;;;;;;;24.40;11.73;;;;;;;15.57;40.90;96061.72;5091748;28;20209;-63
2021/03/04 10:56:51;;;;;;;20.97;10.27;;;;;;;15.52;39.13;96057.41;5091131;28;20596;-63
2021/03/04 10:59:18;;;;;;;18.30;9.37;;;;;;;15.70;38.45;96055.50;5090943;28;20671;-64
2021/03/04 11:01:48;;;;;;;20.63;9.63;;;;;;;15.94;40.73;96056.53;5091178;28;20192;-62
2021/03/04 11:04:15;;;;;;;65.73;34.10;;;;;;;16.16;39.01;96049.53;5091214;28;20203;-64
2021/03/04 11:06:42;;;;;;;25.17;14.03;;;;;;;16.32;38.90;96038.22;5091257;28;20249;-63
2021/03/04 11:09:08;;;;;;;15.20;9.10;;;;;;;16.23;36.96;96029.63;5091013;28;20192;-62
2021/03/04 11:11:35;;;;;;;14.93;9.43;;;;;;;16.33;37.31;96029.25;5090904;28;20188;-64
2021/03/04 11:14:03;;;;;;;16.33;9.87;;;;;;;16.49;38.31;96021.59;5090826;28;20257;-64
2021/03/04 11:16:30;;;;;;;24.30;9.73;;;;;;;16.68;37.71;96008.09;5090771;28;20203;-64
2021/03/04 11:18:57;;;;;;;13.83;8.00;;;;;;;16.85;37.50;96005.34;5090573;28;20196;-60
2021/03/04 11:21:24;;;;;;;10.50;7.73;;;;;;;16.95;36.71;95994.44;5090881;28;20207;-63
2021/03/04 11:23:51;;;;;;;12.15;7.45;;;;;;;17.29;37.11;95992.63;5090898;28;20196;-61
2021/03/04 11:26:18;;;;;;;11.97;7.63;;;;;;;17.32;35.34;95986.72;5090775;28;20191;-63
2021/03/04 11:28:45;;;;;;;16.13;7.85;;;;;;;17.34;36.50;95979.28;5090557;28;20223;-64